Time;durP1;ratioP1;P1;durP2;ratioP2;P2;SDS_P1;SDS_P2;PMS_P1;PMS_P2;Temp;Humidity;BMP_temperature;BMP_pressure;BME280_temperature;BME280_humidity;BME280_pressure;Samples;Min_cycle;Max_cycle;Signal;HPM_P1;HPM_P2
2023/03/11 00:01:31;;;;;;;18.05;7.75;;;0.60;73.40;;;;;;4140614;28;20011;-86
2023/03/11 00:03:52;;;;;;;13.82;7.57;;;0.50;73.40;;;;;;4140473;28;20717;-86
2023/03/11 00:06:13;;;;;;;15.23;7.70;;;0.70;73.60;;;;;;4151316;28;20037;-85
2023/03/11 00:08:33;;;;;;;14.98;8.38;;;0.60;73.60;;;;;;4151664;28;20462;-86
2023/03/11 00:10:38;;;;;;;15.88;8.35;;;0.60;73.70;;;;;;4139810;28;20036;-87
2023/03/11 00:12:59;;;;;;;15.07;8.32;;;0.60;73.80;;;;;;4142026;28;20030;-86
2023/03/11 00:15:20;;;;;;;14.63;8.02;;;0.60;73.90;;;;;;4136325;28;20041;-86
2023/03/11 00:17:40;;;;;;;15.48;8.05;;;0.50;73.90;;;;;;4154008;28;20044;-87
2023/03/11 00:19:44;;;;;;;;;;;0.60;74.00;;;;;;4133114;28;20037;-86
2023/03/11 00:22:04;;;;;;;14.98;8.55;;;0.60;74.50;;;;;;4151428;28;19999;-86
2023/03/11 00:24:25;;;;;;;15.88;7.80;;;0.60;74.10;;;;;;4137248;28;20030;-86
2023/03/11 00:26:46;;;;;;;16.77;7.35;;;0.50;73.90;;;;;;4141541;28;20042;-86
2023/03/11 00:29:07;;;;;;;13.98;7.30;;;0.60;73.90;;;;;;4153869;28;20177;-86
2023/03/11 00:31:30;;;;;;;;;;;0.60;74.30;;;;;;4149824;28;20504;-87
2023/03/11 00:33:31;;;;;;;13.70;7.05;;;0.60;74.70;;;;;;4123665;28;19936;-87
2023/03/11 00:35:52;;;;;;;12.90;7.10;;;0.60;74.20;;;;;;4139193;28;20038;-87
2023/03/11 00:38:15;;;;;;;13.55;5.85;;;0.60;74.10;;;;;;4155452;28;20557;-86
2023/03/11 00:40:36;;;;;;;11.32;6.65;;;0.60;74.20;;;;;;4138690;28;20038;-87
2023/03/11 00:43:00;;;;;;;15.88;7.45;;;0.50;74.20;;;;;;4137592;28;20038;-86
2023/03/11 00:45:22;;;;;;;13.75;7.63;;;0.50;74.10;;;;;;4137589;28;20036;-86
2023/03/11 00:47:46;;;;;;;14.35;7.85;;;0.40;74.30;;;;;;4141196;28;20042;-86
2023/03/11 00:50:08;;;;;;;13.57;7.47;;;0.50;74.20;;;;;;4152230;28;20065;-85
2023/03/11 00:52:29;;;;;;;15.07;7.75;;;0.40;74.20;;;;;;4140029;28;20026;-86
2023/03/11 00:54:50;;;;;;;15.70;7.68;;;0.50;74.30;;;;;;4153325;28;20041;-85
2023/03/11 00:57:10;;;;;;;15.63;7.78;;;0.50;74.40;;;;;;4152050;28;20037;-87
2023/03/11 00:59:11;;;;;;;17.95;8.45;;;0.50;75.20;;;;;;4131833;28;20171;-86
2023/03/11 01:01:17;;;;;;;14.90;7.30;;;0.50;74.50;;;;;;4120730;28;20031;-86
2023/03/11 01:03:18;;;;;;;;;;;0.50;74.40;;;;;;4153647;28;20101;-86
2023/03/11 01:05:22;;;;;;;16.10;8.13;;;0.40;74.90;;;;;;4117502;28;19913;-85
2023/03/11 01:07:23;;;;;;;18.30;8.35;;;0.50;74.40;;;;;;4136613;28;20036;-86
2023/03/11 01:09:41;;;;;;;12.77;7.72;;;0.40;74.50;;;;;;4139524;28;20030;-86
2023/03/11 01:11:58;;;;;;;16.15;7.93;;;0.40;74.60;;;;;;4150830;28;20030;-86
2023/03/11 01:14:12;;;;;;;14.60;7.47;;;0.30;74.50;;;;;;4146203;28;20026;-87
2023/03/11 01:16:36;;;;;;;18.42;8.13;;;0.40;74.60;;;;;;4134076;28;20060;-85
2023/03/11 01:18:56;;;;;;;17.35;7.55;;;0.40;74.50;;;;;;4133528;28;20046;-86
2023/03/11 01:21:20;;;;;;;19.50;8.05;;;0.30;74.40;;;;;;4148966;28;20033;-84
2023/03/11 01:23:41;;;;;;;17.48;7.40;;;0.40;74.40;;;;;;4136795;28;20030;-86
2023/03/11 01:26:05;;;;;;;14.15;7.18;;;0.30;74.40;;;;;;4135297;28;20041;-85
2023/03/11 01:28:26;;;;;;;14.40;7.00;;;0.30;74.30;;;;;;4154682;28;20072;-85
2023/03/11 01:30:47;;;;;;;13.98;7.45;;;0.30;74.20;;;;;;4150352;28;20033;-85
2023/03/11 01:33:15;;;;;;;16.73;7.63;;;0.40;74.40;;;;;;4138716;28;20030;-85
2023/03/11 01:35:38;;;;;;;16.33;7.47;;;0.30;74.20;;;;;;4151702;28;20455;-85
2023/03/11 01:38:02;;;;;;;15.47;7.47;;;0.30;74.10;;;;;;4139475;28;20033;-86
2023/03/11 01:40:38;;;;;;;14.55;7.38;;;0.20;74.00;;;;;;4150541;28;20035;-85
2023/03/11 01:42:41;;;;;;;14.05;7.40;;;0.30;74.10;;;;;;4138009;28;20026;-85
2023/03/11 01:44:44;;;;;;;15.25;7.47;;;0.30;74.10;;;;;;4138486;28;20594;-86
2023/03/11 01:46:58;;;;;;;14.85;7.88;;;0.20;74.10;;;;;;4133781;28;20556;-85
2023/03/11 01:49:01;;;;;;;14.02;7.13;;;0.20;74.10;;;;;;4135628;28;20042;-86
2023/03/11 01:51:24;;;;;;;14.70;7.60;;;0.10;74.20;;;;;;4132864;28;20029;-84
2023/03/11 01:53:45;;;;;;;18.17;8.52;;;0.20;74.30;;;;;;4148593;28;20030;-85
2023/03/11 01:55:53;;;;;;;23.63;8.98;;;0.10;74.30;;;;;;4135771;28;20065;-86
2023/03/11 01:58:24;;;;;;;15.57;7.28;;;0.10;74.30;;;;;;4142249;28;20030;-85
2023/03/11 02:00:45;;;;;;;14.85;7.10;;;0.00;74.10;;;;;;4152277;28;20108;-85
2023/03/11 02:03:11;;;;;;;12.85;6.65;;;0.00;74.10;;;;;;4138908;28;20026;-85
2023/03/11 02:05:32;;;;;;;14.88;7.82;;;0.10;74.20;;;;;;4141888;28;20037;-85
2023/03/11 02:07:56;;;;;;;15.45;6.65;;;-0.10;74.10;;;;;;4139781;28;20053;-84
2023/03/11 02:10:17;;;;;;;15.65;7.40;;;-0.10;74.20;;;;;;4136994;28;20081;-85
2023/03/11 02:12:39;;;;;;;17.30;7.15;;;-0.10;74.20;;;;;;4152929;28;20085;-84
2023/03/11 02:15:01;;;;;;;13.23;7.32;;;-0.10;74.10;;;;;;4138723;28;20038;-85
2023/03/11 02:17:21;;;;;;;13.65;6.72;;;-0.10;74.20;;;;;;4153493;28;20030;-85
2023/03/11 02:19:50;;;;;;;11.32;6.55;;;-0.10;74.30;;;;;;4149093;28;20034;-85
2023/03/11 02:21:53;;;;;;;15.90;6.75;;;-0.20;74.10;;;;;;4135515;28;20076;-84
2023/03/11 02:24:24;;;;;;;13.45;7.10;;;-0.10;74.10;;;;;;4151442;28;20033;-85
2023/03/11 02:26:47;;;;;;;12.85;6.88;;;-0.20;74.10;;;;;;4136606;28;20037;-85
2023/03/11 02:29:10;;;;;;;14.07;6.93;;;-0.20;74.10;;;;;;4138879;28;20080;-85
2023/03/11 02:31:32;;;;;;;13.25;6.72;;;-0.30;74.10;;;;;;4138521;28;20029;-86
2023/03/11 02:33:55;;;;;;;13.05;6.15;;;-0.30;74.10;;;;;;4138990;28;20087;-85
2023/03/11 02:36:37;;;;;;;15.97;7.07;;;-0.20;74.00;;;;;;4157760;28;20033;-85
2023/03/11 02:39:02;;;;;;;11.30;6.35;;;-0.40;73.90;;;;;;4140206;28;20291;-85
2023/03/11 02:41:26;;;;;;;13.20;6.32;;;-0.30;73.90;;;;;;4152685;28;20036;-85
2023/03/11 02:43:48;;;;;;;12.23;5.93;;;-0.40;73.80;;;;;;4153902;28;20030;-86
2023/03/11 02:46:11;;;;;;;10.45;5.80;;;-0.40;73.70;;;;;;4158688;28;20061;-85
2023/03/11 02:48:33;;;;;;;13.17;5.77;;;-0.50;73.80;;;;;;4141256;28;20087;-86
2023/03/11 02:50:54;;;;;;;13.18;6.28;;;-0.40;73.80;;;;;;4141539;28;20288;-86
2023/03/11 02:53:15;;;;;;;11.35;5.82;;;-0.50;73.70;;;;;;4153069;28;20040;-87
2023/03/11 02:55:36;;;;;;;13.68;6.20;;;-0.40;73.70;;;;;;4155188;28;20025;-85
2023/03/11 02:57:56;;;;;;;12.45;5.50;;;-0.50;73.70;;;;;;4145457;28;20036;-85
2023/03/11 03:00:17;;;;;;;11.32;5.65;;;-0.50;73.70;;;;;;4137164;28;20611;-85
2023/03/11 03:02:44;;;;;;;11.27;5.70;;;-0.50;73.60;;;;;;4155014;28;20040;-85
2023/03/11 03:05:05;;;;;;;10.90;6.13;;;-0.60;73.50;;;;;;4153468;28;20030;-85
2023/03/11 03:07:26;;;;;;;11.50;5.75;;;-0.60;73.50;;;;;;4138178;28;20079;-85
2023/03/11 03:09:47;;;;;;;18.33;5.68;;;-0.60;73.50;;;;;;4156526;28;20104;-86
2023/03/11 03:12:07;;;;;;;14.25;5.38;;;-0.70;73.30;;;;;;4144394;28;20026;-86
2023/03/11 03:14:27;;;;;;;10.77;5.50;;;-0.70;73.30;;;;;;4142229;28;20031;-84
2023/03/11 03:16:48;;;;;;;11.35;5.78;;;-0.70;73.30;;;;;;4141356;28;20327;-84
2023/03/11 03:19:12;;;;;;;12.50;5.95;;;-0.70;73.20;;;;;;4141191;28;20061;-85
2023/03/11 03:21:17;;;;;;;13.85;6.07;;;-0.80;73.10;;;;;;4138266;28;20079;-86
2023/03/11 03:23:37;;;;;;;10.25;5.45;;;-0.80;73.20;;;;;;4141259;28;20033;-85
2023/03/11 03:25:58;;;;;;;11.35;5.60;;;-0.70;73.20;;;;;;4156135;28;20044;-86
2023/03/11 03:28:19;;;;;;;11.48;6.03;;;-0.80;73.20;;;;;;4145698;28;20046;-86
2023/03/11 03:30:40;;;;;;;12.02;5.65;;;-0.80;73.30;;;;;;4143685;28;20034;-86
2023/03/11 03:33:01;;;;;;;12.15;5.55;;;-0.90;73.30;;;;;;4158132;28;20069;-88
2023/03/11 03:35:24;;;;;;;11.10;5.72;;;-0.80;73.40;;;;;;4155211;28;20052;-85
2023/03/11 03:37:44;;;;;;;14.07;6.22;;;-0.90;73.40;;;;;;4156576;28;20029;-85
2023/03/11 03:40:06;;;;;;;13.27;6.07;;;-1.00;73.40;;;;;;4144394;28;20049;-85
2023/03/11 03:42:30;;;;;;;13.55;6.40;;;-1.00;73.50;;;;;;4155260;28;20124;-85
2023/03/11 03:44:54;;;;;;;;;;;-1.00;73.60;;;;;;4142598;28;20026;-85
2023/03/11 03:47:14;;;;;;;15.13;6.65;;;-1.10;73.90;;;;;;4147271;28;19909;-86
2023/03/11 03:49:15;;;;;;;12.02;6.43;;;-1.10;73.70;;;;;;4145110;28;20038;-86
2023/03/11 03:51:16;;;;;;;17.23;7.65;;;-1.10;74.00;;;;;;4140675;28;20106;-85
2023/03/11 03:53:17;;;;;;;16.20;7.13;;;-1.10;74.10;;;;;;4142033;28;20024;-85
2023/03/11 03:55:18;;;;;;;13.13;7.07;;;-1.10;74.30;;;;;;4128674;28;20465;-85
2023/03/11 03:57:19;;;;;;;14.20;7.13;;;-1.20;74.40;;;;;;4127048;28;20137;-85
2023/03/11 03:59:20;;;;;;;13.40;6.70;;;-1.10;75.20;;;;;;4141431;28;20049;-85
2023/03/11 04:01:20;;;;;;;15.38;7.82;;;-1.10;74.60;;;;;;4126566;28;20030;-86
2023/03/11 04:03:41;;;;;;;16.15;8.43;;;-1.10;74.60;;;;;;4144959;28;20030;-85
2023/03/11 04:06:28;;;;;;;16.30;8.45;;;-1.10;74.70;;;;;;4145183;28;20443;-86
2023/03/11 04:08:51;;;;;;;14.02;7.40;;;-1.10;74.80;;;;;;4160946;28;20079;-84
2023/03/11 04:11:12;;;;;;;20.27;7.85;;;-1.10;74.90;;;;;;4162917;28;20086;-85
2023/03/11 04:13:28;;;;;;;12.18;7.20;;;-1.10;74.90;;;;;;4145280;28;20190;-86
2023/03/11 04:15:49;;;;;;;12.02;6.78;;;-1.10;74.80;;;;;;4145529;28;20097;-84
2023/03/11 04:18:10;;;;;;;21.33;7.18;;;-1.10;74.80;;;;;;4145800;28;20515;-85
2023/03/11 04:20:30;;;;;;;11.60;6.15;;;-1.10;74.60;;;;;;4147842;28;20130;-86
2023/03/11 04:22:51;;;;;;;12.40;6.03;;;-1.10;74.40;;;;;;4148139;28;20038;-85
2023/03/11 04:24:51;;;;;;;13.02;6.13;;;-1.10;74.40;;;;;;4158062;28;20064;-85
2023/03/11 04:26:52;;;;;;;11.45;5.85;;;-1.10;74.40;;;;;;4147288;28;20058;-86
2023/03/11 04:28:53;;;;;;;11.55;6.03;;;-1.10;74.40;;;;;;4131499;28;20019;-85
2023/03/11 04:30:54;;;;;;;11.48;5.65;;;-1.10;74.40;;;;;;4161422;28;20538;-85
2023/03/11 04:32:55;;;;;;;10.35;5.47;;;-1.20;74.20;;;;;;4158412;28;20094;-85
2023/03/11 04:34:56;;;;;;;11.73;5.95;;;-1.20;74.20;;;;;;4140905;28;20034;-85
2023/03/11 04:37:17;;;;;;;11.70;6.00;;;-1.20;74.20;;;;;;4142791;28;20038;-84
2023/03/11 04:39:37;;;;;;;10.60;5.25;;;-1.20;74.10;;;;;;4168122;28;20872;-85
2023/03/11 04:41:58;;;;;;;10.90;5.28;;;-1.20;74.10;;;;;;4152695;28;20503;-85
2023/03/11 04:44:19;;;;;;;14.43;6.00;;;-1.20;74.00;;;;;;4148240;28;20022;-85
2023/03/11 04:46:40;;;;;;;10.73;5.32;;;-1.30;74.00;;;;;;4144493;28;20034;-85
2023/03/11 04:49:00;;;;;;;17.10;6.28;;;-1.30;73.90;;;;;;4143794;28;20125;-84
2023/03/11 04:51:21;;;;;;;9.75;4.95;;;-1.30;73.90;;;;;;4160072;28;20145;-85
2023/03/11 04:53:41;;;;;;;10.70;5.03;;;-1.30;74.10;;;;;;4142867;28;20026;-84
2023/03/11 04:56:02;;;;;;;8.88;4.70;;;-1.40;74.20;;;;;;4159353;28;20040;-84
2023/03/11 04:58:23;;;;;;;13.50;5.38;;;-1.40;74.30;;;;;;4160141;28;20033;-85
2023/03/11 05:00:43;;;;;;;10.30;5.00;;;-1.40;74.20;;;;;;4160602;28;20616;-84
2023/03/11 05:03:04;;;;;;;8.13;4.75;;;-1.40;74.20;;;;;;4142487;28;20034;-84
2023/03/11 05:05:25;;;;;;;11.15;5.05;;;-1.40;74.20;;;;;;4158444;28;20037;-85
2023/03/11 05:07:46;;;;;;;9.32;5.00;;;-1.40;74.30;;;;;;4143253;28;20033;-87
2023/03/11 05:10:08;;;;;;;12.07;4.60;;;-1.40;74.30;;;;;;4144675;28;20508;-85
2023/03/11 05:12:13;;;;;;;10.23;4.13;;;-1.50;74.40;;;;;;4158313;28;20045;-85
2023/03/11 05:14:13;;;;;;;9.50;4.90;;;-1.50;74.40;;;;;;4131272;28;20058;-85
2023/03/11 05:16:14;;;;;;;11.77;4.50;;;-1.50;74.30;;;;;;4143716;28;20034;-85
2023/03/11 05:18:15;;;;;;;9.15;5.00;;;-1.50;74.40;;;;;;4161102;28;20021;-86
2023/03/11 05:20:17;;;;;;;10.25;4.43;;;-1.50;74.40;;;;;;4142963;28;20019;-85
2023/03/11 05:22:17;;;;;;;9.48;4.35;;;-1.50;74.60;;;;;;4125371;28;20018;-85
2023/03/11 05:24:18;;;;;;;10.60;4.25;;;-1.50;74.60;;;;;;4142811;28;20023;-85
2023/03/11 05:26:19;;;;;;;8.45;4.38;;;-1.40;74.60;;;;;;4157118;28;20072;-85
2023/03/11 05:28:22;;;;;;;;;;;-1.50;74.50;;;;;;4127236;28;20022;-84
2023/03/11 05:30:25;;;;;;;9.65;3.92;;;-1.50;74.60;;;;;;4127005;28;19918;-84
2023/03/11 05:32:26;;;;;;;8.07;4.15;;;-1.40;74.40;;;;;;4143284;28;20033;-85
2023/03/11 05:34:27;;;;;;;8.43;4.10;;;-1.50;74.40;;;;;;4142285;28;20030;-84
2023/03/11 05:36:28;;;;;;;8.55;3.85;;;-1.50;74.40;;;;;;4147009;28;20041;-85
2023/03/11 05:38:28;;;;;;;12.13;4.68;;;-1.60;74.40;;;;;;4165690;28;20033;-86
2023/03/11 05:40:32;;;;;;;6.63;4.03;;;-1.50;74.40;;;;;;4148254;28;20942;-86
2023/03/11 05:42:34;;;;;;;7.63;4.00;;;-1.50;74.40;;;;;;4164449;28;20044;-85
2023/03/11 05:44:34;;;;;;;11.43;4.40;;;-1.50;74.50;;;;;;4160481;28;20025;-85
2023/03/11 05:46:35;;;;;;;12.82;4.50;;;-1.50;74.50;;;;;;4130401;28;20023;-85
2023/03/11 05:48:36;;;;;;;8.93;4.28;;;-1.60;74.40;;;;;;4161715;28;20124;-85
2023/03/11 05:50:37;;;;;;;10.38;4.30;;;-1.70;74.30;;;;;;4143902;28;20030;-85
2023/03/11 05:52:43;;;;;;;11.13;4.35;;;-1.70;74.40;;;;;;4146112;28;20038;-85
2023/03/11 05:54:47;;;;;;;10.02;4.28;;;-1.60;74.50;;;;;;4161191;28;20022;-85
2023/03/11 05:56:48;;;;;;;7.68;3.53;;;-1.60;74.50;;;;;;4157428;28;20033;-85
2023/03/11 05:58:49;;;;;;;9.95;3.47;;;-1.70;74.40;;;;;;4129595;28;20045;-85
2023/03/11 06:00:49;;;;;;;13.40;3.80;;;-1.70;74.40;;;;;;4142814;28;20026;-85
2023/03/11 06:02:50;;;;;;;11.18;3.95;;;-1.70;74.20;;;;;;4157963;28;20030;-85
2023/03/11 06:04:51;;;;;;;7.00;3.40;;;-1.70;74.20;;;;;;4148042;28;20037;-85
2023/03/11 06:06:59;;;;;;;11.70;3.83;;;-1.60;74.40;;;;;;4144704;28;20032;-86
2023/03/11 06:09:00;;;;;;;6.05;3.30;;;-1.60;74.40;;;;;;4150854;28;20046;-85
2023/03/11 06:11:07;;;;;;;7.00;3.30;;;-1.70;74.20;;;;;;4145359;28;20030;-85
2023/03/11 06:13:08;;;;;;;14.45;3.55;;;-1.70;74.10;;;;;;4141905;28;20056;-85
2023/03/11 06:15:09;;;;;;;9.23;3.17;;;-1.70;74.10;;;;;;4152149;28;20039;-84
2023/03/11 06:17:10;;;;;;;9.27;3.33;;;-1.60;74.10;;;;;;4150962;28;20116;-85
2023/03/11 06:19:11;;;;;;;5.28;3.28;;;-1.70;74.00;;;;;;4136555;28;20033;-84
2023/03/11 06:21:20;;;;;;;6.80;3.03;;;-1.70;73.80;;;;;;4134494;28;20022;-85
2023/03/11 06:23:25;;;;;;;7.45;3.10;;;-1.70;74.60;;;;;;4151635;28;20085;-83
2023/03/11 06:25:26;;;;;;;5.63;2.92;;;-1.60;73.80;;;;;;4136957;28;20029;-84
2023/03/11 06:27:26;;;;;;;8.32;3.72;;;-1.60;73.70;;;;;;4125413;28;20030;-84
2023/03/11 06:29:30;;;;;;;5.60;2.63;;;-1.70;73.60;;;;;;4155811;28;20045;-86
2023/03/11 06:31:31;;;;;;;;;;;-1.60;73.40;;;;;;4126372;28;20924;-85
2023/03/11 06:33:34;;;;;;;10.13;3.13;;;-1.50;73.70;;;;;;4140476;28;19913;-84
2023/03/11 06:35:43;;;;;;;5.78;3.00;;;-1.60;73.30;;;;;;4144045;28;20025;-85
2023/03/11 06:37:45;;;;;;;6.60;3.00;;;-1.50;73.30;;;;;;4142622;28;20141;-85
2023/03/11 06:39:50;;;;;;;4.80;2.60;;;-1.60;73.20;;;;;;4136230;28;20045;-84
2023/03/11 06:41:51;;;;;;;4.35;2.67;;;-1.50;73.30;;;;;;4123658;28;20030;-85
2023/03/11 06:43:52;;;;;;;5.88;2.92;;;-1.50;73.40;;;;;;4151724;28;20120;-86
2023/03/11 06:45:52;;;;;;;5.63;2.95;;;-1.40;74.20;;;;;;4138610;28;20442;-85
2023/03/11 06:48:16;;;;;;;7.00;2.70;;;-1.40;73.10;;;;;;4159037;28;20243;-85
2023/03/11 06:50:17;;;;;;;5.10;2.35;;;-1.50;73.00;;;;;;4153246;28;20092;-85
2023/03/11 06:52:53;;;;;;;6.60;2.90;;;-1.50;72.80;;;;;;4156788;28;20718;-84
2023/03/11 06:54:59;;;;;;;4.85;2.53;;;-1.40;72.80;;;;;;4113646;28;20078;-85
2023/03/11 06:57:03;;;;;;;8.40;3.38;;;-1.40;72.60;;;;;;4124112;28;20092;-84
2023/03/11 06:59:04;;;;;;;8.02;2.42;;;-1.40;73.30;;;;;;4126562;28;20077;-86
2023/03/11 07:01:13;;;;;;;7.07;3.05;;;-1.30;72.50;;;;;;4124755;28;20516;-86
2023/03/11 07:03:15;;;;;;;7.10;2.95;;;-1.30;72.60;;;;;;4118528;28;20027;-85
2023/03/11 07:05:16;;;;;;;4.63;2.58;;;-1.20;72.50;;;;;;4104756;28;20038;-85
2023/03/11 07:07:20;;;;;;;6.32;2.70;;;-1.30;72.30;;;;;;4120841;28;20053;-85
2023/03/11 07:09:21;;;;;;;8.38;2.92;;;-1.20;72.30;;;;;;4106094;28;20038;-85
2023/03/11 07:11:27;;;;;;;5.15;2.70;;;-1.10;72.20;;;;;;4107868;28;20067;-85
2023/03/11 07:13:28;;;;;;;5.05;2.50;;;-1.10;72.10;;;;;;4110131;28;20038;-85
2023/03/11 07:15:28;;;;;;;6.75;2.40;;;-1.00;71.90;;;;;;4103306;28;20054;-85
2023/03/11 07:17:29;;;;;;;7.97;2.72;;;-1.10;71.80;;;;;;4114230;28;20042;-86
2023/03/11 07:19:33;;;;;;;5.95;2.38;;;-1.00;71.50;;;;;;4108371;28;20222;-85
2023/03/11 07:21:33;;;;;;;6.07;2.17;;;-1.10;71.20;;;;;;4124428;28;20037;-86
2023/03/11 07:23:40;;;;;;;6.90;2.45;;;-0.90;71.40;;;;;;4124918;28;20059;-86
2023/03/11 07:25:45;;;;;;;6.13;2.40;;;-1.00;71.20;;;;;;4126135;28;20045;-85
2023/03/11 07:27:48;;;;;;;6.00;2.78;;;-0.90;71.20;;;;;;4111543;28;20043;-86
2023/03/11 07:29:49;;;;;;;4.30;2.28;;;-0.90;71.10;;;;;;4111426;28;20043;-85
2023/03/11 07:31:50;;;;;;;4.60;2.00;;;-0.90;71.00;;;;;;4138513;28;20144;-85
2023/03/11 07:33:51;;;;;;;3.90;2.40;;;-0.80;71.20;;;;;;4140370;28;20026;-87
2023/03/11 07:35:52;;;;;;;4.28;2.17;;;-0.80;71.00;;;;;;4142880;28;20122;-85
2023/03/11 07:37:52;;;;;;;8.13;2.28;;;-0.80;70.90;;;;;;4124893;28;20030;-85
2023/03/11 07:39:53;;;;;;;13.93;2.60;;;-0.70;70.90;;;;;;4158607;28;20048;-86
2023/03/11 07:41:57;;;;;;;4.90;2.45;;;-0.60;70.80;;;;;;4152317;28;20025;-84
2023/03/11 07:44:04;;;;;;;5.03;2.20;;;-0.50;70.80;;;;;;4139062;28;20025;-85
2023/03/11 07:46:17;;;;;;;2.90;2.00;;;-0.60;70.50;;;;;;4137560;28;20101;-86
2023/03/11 07:48:19;;;;;;;;;;;-0.50;70.50;;;;;;4127778;28;20022;-85
2023/03/11 07:50:45;;;;;;;5.03;2.58;;;-0.40;70.30;;;;;;4144363;28;19948;-86
2023/03/11 07:53:06;;;;;;;5.85;2.03;;;-0.30;70.10;;;;;;4158781;28;20486;-84
2023/03/11 07:55:27;;;;;;;5.18;2.08;;;-0.30;69.80;;;;;;4154827;28;20026;-85
2023/03/11 07:57:50;;;;;;;5.72;1.88;;;-0.30;69.70;;;;;;4152092;28;20526;-87
2023/03/11 08:00:14;;;;;;;4.57;1.67;;;-0.20;69.50;;;;;;4139073;28;20145;-84
2023/03/11 08:02:40;;;;;;;5.78;1.85;;;-0.20;69.40;;;;;;4157487;28;20026;-84
2023/03/11 08:05:10;;;;;;;3.22;1.80;;;-0.20;69.50;;;;;;4138448;28;20777;-85
2023/03/11 08:07:31;;;;;;;6.68;2.10;;;-0.10;69.00;;;;;;4137153;28;20246;-85
2023/03/11 08:09:55;;;;;;;3.28;1.40;;;0.00;69.00;;;;;;4140023;28;20038;-84
2023/03/11 08:12:19;;;;;;;7.85;1.88;;;0.00;68.90;;;;;;4143827;28;20391;-84
2023/03/11 08:14:40;;;;;;;2.63;1.38;;;0.00;68.70;;;;;;4155829;28;20487;-84
2023/03/11 08:17:04;;;;;;;3.35;1.50;;;0.20;68.60;;;;;;4155438;28;20487;-85
2023/03/11 08:19:11;;;;;;;6.82;1.63;;;0.20;68.40;;;;;;4154839;28;20373;-85
2023/03/11 08:21:17;;;;;;;7.22;1.67;;;0.30;68.20;;;;;;4141065;28;20029;-84
2023/03/11 08:23:20;;;;;;;5.15;1.40;;;0.20;68.10;;;;;;4163641;28;20032;-85
2023/03/11 08:25:24;;;;;;;7.60;2.72;;;0.40;67.90;;;;;;4126250;28;20038;-85
2023/03/11 08:27:30;;;;;;;;;;;0.30;67.70;;;;;;4137527;28;20037;-89
2023/03/11 08:29:34;;;;;;;;;;;0.40;67.50;;;;;;4140069;28;19921;-85
2023/03/11 08:31:35;;;;;;;8.95;2.50;;;0.50;67.50;;;;;;4135272;28;19964;-86
2023/03/11 08:33:38;;;;;;;;;;;0.60;66.50;;;;;;4146957;28;20038;-85
2023/03/11 08:35:44;;;;;;;4.80;1.52;;;0.60;66.80;;;;;;4124128;28;19921;-85
2023/03/11 08:37:45;;;;;;;3.92;1.20;;;0.70;66.60;;;;;;4140310;28;20041;-86
2023/03/11 08:39:46;;;;;;;2.50;1.40;;;0.70;66.20;;;;;;4157775;28;20092;-87
2023/03/11 08:41:53;;;;;;;3.80;1.10;;;0.80;65.80;;;;;;4138536;28;20025;-86
2023/03/11 08:43:53;;;;;;;5.38;1.40;;;0.80;65.60;;;;;;4141163;28;20500;-85
2023/03/11 08:45:54;;;;;;;2.90;1.20;;;0.80;65.30;;;;;;4115993;28;20122;-87
2023/03/11 08:47:55;;;;;;;3.83;1.30;;;0.90;65.20;;;;;;4135182;28;20145;-86
2023/03/11 08:49:58;;;;;;;6.65;1.50;;;0.90;64.60;;;;;;4132749;28;20026;-85
2023/03/11 08:52:06;;;;;;;4.60;1.23;;;1.00;64.50;;;;;;4123084;28;20125;-87
2023/03/11 08:54:07;;;;;;;2.45;1.17;;;1.00;64.40;;;;;;4150618;28;20033;-85
2023/03/11 08:56:08;;;;;;;2.10;0.93;;;1.10;64.50;;;;;;4118185;28;20776;-86
2023/03/11 08:58:09;;;;;;;2.50;0.90;;;1.20;65.00;;;;;;4131285;28;20064;-85
2023/03/11 09:00:11;;;;;;;2.10;0.95;;;1.00;63.80;;;;;;4119853;28;20508;-86
2023/03/11 09:02:12;;;;;;;3.70;1.40;;;1.20;63.60;;;;;;4134199;28;20033;-86
2023/03/11 09:04:13;;;;;;;2.80;0.95;;;1.20;63.30;;;;;;4118712;28;20169;-86
2023/03/11 09:06:15;;;;;;;4.03;0.93;;;1.30;63.50;;;;;;4132606;28;20070;-85
2023/03/11 09:08:15;;;;;;;8.10;0.90;;;1.40;63.50;;;;;;4130965;28;21472;-85
2023/03/11 09:10:17;;;;;;;3.70;0.93;;;1.40;63.40;;;;;;4119176;28;20512;-86
2023/03/11 09:12:18;;;;;;;5.05;1.15;;;1.50;63.50;;;;;;4137953;28;20136;-86
2023/03/11 09:14:19;;;;;;;4.85;1.02;;;1.60;63.10;;;;;;4153116;28;20033;-86
2023/03/11 09:16:21;;;;;;;4.90;1.10;;;1.60;62.90;;;;;;4122561;28;20049;-85
2023/03/11 09:18:26;;;;;;;1.75;0.80;;;1.70;63.10;;;;;;4134614;28;20045;-85
2023/03/11 09:20:29;;;;;;;2.20;0.90;;;1.80;62.80;;;;;;4119246;28;20034;-85
2023/03/11 09:22:30;;;;;;;2.70;1.25;;;1.80;62.50;;;;;;4139213;28;20476;-85
2023/03/11 09:24:37;;;;;;;4.45;1.05;;;1.90;62.50;;;;;;4125664;28;20050;-85
2023/03/11 09:26:37;;;;;;;9.48;0.90;;;2.00;62.40;;;;;;4125328;28;20439;-86
2023/03/11 09:28:47;;;;;;;3.40;0.90;;;2.10;62.30;;;;;;4121474;28;20034;-85
2023/03/11 09:30:48;;;;;;;2.13;0.93;;;2.10;61.90;;;;;;4122625;28;20661;-85
2023/03/11 09:32:51;;;;;;;8.77;1.10;;;2.30;62.20;;;;;;4141060;28;20018;-85
2023/03/11 09:34:52;;;;;;;2.90;1.08;;;2.30;62.00;;;;;;4127500;28;20450;-85
2023/03/11 09:36:56;;;;;;;4.82;0.98;;;2.30;61.40;;;;;;4135219;28;20022;-85
2023/03/11 09:38:57;;;;;;;6.25;1.20;;;2.40;61.10;;;;;;4133750;28;20630;-85
2023/03/11 09:41:20;;;;;;;4.65;1.02;;;2.50;60.30;;;;;;4115930;28;20177;-83
2023/03/11 09:43:39;;;;;;;5.55;1.45;;;2.50;60.10;;;;;;4129433;28;20430;-84
2023/03/11 09:45:49;;;;;;;6.95;1.10;;;2.60;60.70;;;;;;4118069;28;20034;-84
2023/03/11 09:48:33;;;;;;;10.50;1.05;;;2.70;61.50;;;;;;4137329;28;20591;-84
2023/03/11 09:50:42;;;;;;;4.93;1.10;;;2.80;61.60;;;;;;4090140;28;20548;-84
2023/03/11 09:53:13;;;;;;;6.60;1.55;;;2.80;61.00;;;;;;4076978;29;20042;-84
2023/03/11 09:55:41;;;;;;;4.53;0.95;;;2.90;60.90;;;;;;4059692;29;20159;-83
2023/03/11 09:57:42;;;;;;;8.38;1.50;;;3.00;61.30;;;;;;4070073;29;20122;-83
2023/03/11 09:59:45;;;;;;;6.43;1.17;;;3.10;60.50;;;;;;4075033;29;20122;-85
2023/03/11 10:01:49;;;;;;;3.20;1.07;;;3.10;59.90;;;;;;4072110;29;20028;-84
2023/03/11 10:03:53;;;;;;;4.05;1.23;;;3.20;59.80;;;;;;4075754;29;20482;-85
2023/03/11 10:06:01;;;;;;;3.53;0.93;;;3.30;60.20;;;;;;4059687;29;20353;-85
2023/03/11 10:08:12;;;;;;;10.10;1.10;;;3.40;60.10;;;;;;4099500;28;20046;-86
2023/03/11 10:10:14;;;;;;;6.05;0.80;;;3.40;59.70;;;;;;4094379;28;20400;-84
2023/03/11 10:12:38;;;;;;;4.13;0.98;;;3.50;59.40;;;;;;4090668;28;21821;-84
2023/03/11 10:14:59;;;;;;;13.95;1.02;;;3.60;59.50;;;;;;4091971;28;20374;-84
2023/03/11 10:17:20;;;;;;;4.95;0.85;;;3.60;59.30;;;;;;4090873;28;20078;-84
2023/03/11 10:19:31;;;;;;;3.42;0.88;;;3.70;59.40;;;;;;4076408;29;20572;-84
2023/03/11 10:21:49;;;;;;;6.20;0.50;;;3.70;58.80;;;;;;4087361;28;20023;-84
2023/03/11 10:23:55;;;;;;;6.38;0.60;;;3.70;59.30;;;;;;4088112;28;20059;-84
2023/03/11 10:26:19;;;;;;;6.75;0.77;;;3.90;59.40;;;;;;4105738;28;20045;-84
2023/03/11 10:28:24;;;;;;;6.20;0.80;;;3.90;58.90;;;;;;4140397;28;20024;-85
2023/03/11 10:30:30;;;;;;;5.53;0.90;;;4.00;58.70;;;;;;4138340;28;20088;-84
2023/03/11 10:32:40;;;;;;;9.32;0.80;;;4.00;58.60;;;;;;4152033;28;20025;-85
2023/03/11 10:34:50;;;;;;;7.60;0.90;;;4.00;58.40;;;;;;4136714;28;20114;-84
2023/03/11 10:37:03;;;;;;;5.25;0.65;;;4.10;58.40;;;;;;4132979;28;20746;-84
2023/03/11 10:39:05;;;;;;;7.18;0.80;;;4.10;58.00;;;;;;4136568;28;20061;-85
2023/03/11 10:41:16;;;;;;;5.22;0.73;;;4.20;57.80;;;;;;4117242;28;20045;-83
2023/03/11 10:43:34;;;;;;;4.70;0.70;;;4.20;57.80;;;;;;4133333;28;20030;-85
2023/03/11 10:45:40;;;;;;;4.85;0.80;;;4.30;57.50;;;;;;4154120;28;20088;-84
2023/03/11 10:47:40;;;;;;;6.80;0.73;;;4.30;57.50;;;;;;4152764;28;20097;-84
2023/03/11 10:49:41;;;;;;;3.33;0.60;;;4.40;57.90;;;;;;4122871;28;20034;-84
2023/03/11 10:51:48;;;;;;;6.20;0.52;;;4.40;57.60;;;;;;4153735;28;20033;-85
2023/03/11 10:53:55;;;;;;;6.78;0.98;;;4.40;57.40;;;;;;4136299;28;20412;-85
2023/03/11 10:55:58;;;;;;;2.33;0.60;;;4.50;57.30;;;;;;4136392;28;20034;-84
2023/03/11 10:58:10;;;;;;;8.05;0.68;;;4.50;57.20;;;;;;4154316;28;20111;-84
2023/03/11 11:00:26;;;;;;;2.05;0.43;;;4.60;57.40;;;;;;4152779;28;20021;-85
2023/03/11 11:02:48;;;;;;;2.83;0.40;;;4.60;56.80;;;;;;4139172;28;20026;-85
2023/03/11 11:05:02;;;;;;;3.63;0.55;;;4.70;57.10;;;;;;4150259;28;20527;-85
2023/03/11 11:07:27;;;;;;;2.28;0.20;;;4.70;56.30;;;;;;4136353;28;20037;-85
2023/03/11 11:09:29;;;;;;;3.40;0.40;;;4.80;56.20;;;;;;4139382;28;20033;-84
2023/03/11 11:11:31;;;;;;;3.85;0.60;;;4.90;56.20;;;;;;4134474;28;20676;-85
2023/03/11 11:13:34;;;;;;;4.95;0.40;;;4.90;56.40;;;;;;4151473;28;20033;-85
2023/03/11 11:15:38;;;;;;;5.95;0.40;;;5.00;56.10;;;;;;4134807;28;20025;-85
2023/03/11 11:17:39;;;;;;;4.53;0.60;;;5.00;55.30;;;;;;4152349;28;20030;-83
2023/03/11 11:19:44;;;;;;;3.92;0.22;;;5.00;55.30;;;;;;4156013;28;20029;-84
2023/03/11 11:21:51;;;;;;;1.38;0.20;;;5.10;55.60;;;;;;4149634;28;20084;-84
2023/03/11 11:24:02;;;;;;;1.50;0.35;;;5.10;55.20;;;;;;4137586;28;20592;-86
2023/03/11 11:26:06;;;;;;;1.40;0.30;;;5.20;55.20;;;;;;4132949;28;20089;-84
2023/03/11 11:28:25;;;;;;;5.20;0.50;;;5.20;54.30;;;;;;4138262;28;20057;-85